Tiempo atmosférico en la estación meteorológica de Azuaga, Badajoz (550 m.)



Fecha
DESCASC
Temp. máxima en grados centígrados (hora)
DESCASC
Temp. mínima en grados centígrados (hora)
DESCASC
Temp. media en grados centígrados
DESCASC
Racha de viento máxima en m/sg (hora)
DESCASC
Velocidad máxima media en intervalos de 10 minutos(hora)
DESCASC
Precipitaciones diarias en mm
DESCASC
Precipitaciones de 00:00 a 06:00 en mm
DESCASC
Precipitaciones de 06:00 a 12:00 en mm
DESCASC
Precipitaciones de 12:00 a 18:00 en mm
DESCASC
Precipitaciones de 18:00 a 24:00 en mm
DESCASC
19-04-2018 23.4 (17:00) 11.8 (07:50) 17.6 8.61 (13:10) 4.72 (13:30) 0 0 0 0 0
18-04-2018 24.6 (17:50) 11 (07:20) 17.8 6.94 (12:30) 3.89 (11:10) 0 0 0 0 0
17-04-2018 21.7 (18:20) 5.9 (06:20) 13.8 5.28 (11:10) 3.61 (11:30) 0 0 0 0 0
16-04-2018 15.7 (18:20) 6.3 (08:00) 11 10.83 (01:10) 6.39 (01:30) 1.8 1.8 0 0 0
15-04-2018 16.8 (16:10) 5.8 (00:00) 11.3 13.06 (23:20) 8.61 (23:20) 2.8 0 0 0 2.8
14-04-2018 17.7 (16:40) 4.9 (00:00) 11.3 8.61 (20:00) 5 (18:50) 0 0 0 0 0
13-04-2018 13.5 (18:40) 3.5 (00:00) 8.5 6.11 (12:10) 4.17 (17:20) 0 0 0 0 0
12-04-2018 9.4 (13:10) 5.4 (00:00) 7.4 13.06 (16:30) 8.61 (16:30) 12.8 0 0 10.4 2.4
11-04-2018 12.7 (17:10) 4.1 (00:00) 8.4 16.67 (17:40) 10.83 (17:40) 0.8 0.8 0 0 0
10-04-2018 11 (15:20) 3.9 (00:00) 7.5 19.72 (19:20) 12.78 (19:30) 11.2 0 3.2 6 2
09-04-2018 10.8 (15:50) 3.3 (00:00) 7.1 12.22 (16:40) 8.89 (16:40) 0.2 0.2 0 0 0
08-04-2018 14.1 (18:30) 5.8 (00:00) 10 15.56 (22:30) 10.28 (22:30) 8.8 0 2 0 6.8
07-04-2018 14.3 (16:00) 6.5 (00:00) 10.4 13.89 (17:00) 7.5 (17:00) 10.8 4.2 2.2 2.4 2
06-04-2018 19.8 (15:10) 6.9 (00:00) 13.3 11.67 (18:10) 7.78 (18:50) 0 0 0 0 0
05-04-2018 20.5 (17:40) 5.5 (00:00) 13 7.22 (14:20) 3.89 (14:20) 0 0 0 0 0
04-04-2018 16.2 (15:40) 7.4 (00:00) 11.8 11.39 (14:30) 7.78 (13:00) 0 0 0 0 0
03-04-2018 17.7 (16:30) 8.2 (00:00) 13 11.39 (17:00) 7.5 (15:20) 0 0 0 0 0
02-04-2018 17.4 (16:10) 8.1 (00:00) 12.8 11.11 (15:10) 6.94 (15:20) 0 0 0 0 0
01-04-2018 19.1 (16:40) 5.2 (00:00) 12.2 8.06 (12:10) 5 (11:50) 0 0 0 0 0
31-03-2018 13.6 (18:40) 4.1 (00:00) 8.9 13.89 (00:10) 9.72 (00:10) 0 0 0 0 0
30-03-2018 11.9 (18:30) 5.6 (00:00) 8.7 16.11 (21:20) 10.83 (17:20) 2.2 0 1 0 1.2
29-03-2018 13.9 (17:10) 6.8 (00:00) 10.3 9.72 (12:10) 6.94 (18:50) 0 0 0 0 0
28-03-2018 20.7 (16:50) 8.5 (00:00) 14.6 8.06 (17:20) 5.83 (19:40) 0 0 0 0 0
27-03-2018 19.1 (18:00) 4.7 (00:00) 11.9 7.22 (16:40) 4.17 (13:40) 0 0 0 0 0
26-03-2018 15.2 (17:10) 1.7 (00:00) 8.4 8.61 (17:40) 5.56 (04:10) 0 0 0 0 0
25-03-2018 12.1 (17:30) 4.9 (00:00) 8.5 11.39 (00:10) 7.5 (17:20) 4.4 2.4 2 0 0
24-03-2018 11.4 (16:20) 3.5 (00:00) 7.4 21.11 (02:00) 13.61 (02:00) 1.8 1.8 0 0 0
23-03-2018 11 (14:50) 2.7 (00:00) 6.9 14.72 (22:30) 9.72 (22:30) 1.8 0 0 0.4 1.4

Gráficas

Temp. máximas Temp. mínimas Temp. medias Precipitaciones Rachas de viento máximas Velocidades máximas media en intervalos de 10 minutos

Datos horarios

Fecha y hora oficial Temperatura (ºC) Velocidad del viento (km/h) Dirección del viento Racha (km/h) Dirección de racha Precipitación (mm) Presión (hPa) Tendencia (hPa) Humedad (%)
2018-04-21 23:00:00 14.3 15 Oeste 25 Oeste 0 -- -- 87
2018-04-21 22:00:00 15.1 5 Norte 10 Noroeste 0 -- -- 83
2018-04-21 21:00:00 16.1 8 Noroeste 17 Norte 0 -- -- 77
2018-04-21 20:00:00 17.2 11 Nordeste 26 Nordeste 0 -- -- 71
2018-04-21 19:00:00 17.3 19 Norte 32 Norte 0 -- -- 73
2018-04-21 18:00:00 17.4 18 Nordeste 28 Norte 0 -- -- 73
2018-04-21 17:00:00 17.6 17 Norte 32 Norte 0 -- -- 72
2018-04-21 16:00:00 15.6 23 Oeste 44 Oeste 0 -- -- 78
2018-04-21 15:00:00 20.8 10 Sudoeste 19 Oeste 0 -- -- 53
2018-04-21 14:00:00 19.6 10 Sudoeste 22 Sudoeste 0 -- -- 61
2018-04-21 13:00:00 17.6 7 Sudeste 22 Este 0 -- -- 63
2018-04-21 12:00:00 15.7 13 Este 34 Este 0 -- -- 72
2018-04-21 11:00:00 14.8 22 Este 35 Este 0 -- -- 74
2018-04-21 10:00:00 13.8 16 Nordeste 30 Este 0 -- -- 81
2018-04-21 09:00:00 12.6 8 Este 23 Norte 0.2 -- -- 89
2018-04-21 08:00:00 12.6 3 Norte 9 Nordeste 0.2 -- -- 87
2018-04-21 07:00:00 13.2 3 Noroeste 8 Norte 0 -- -- 81
2018-04-21 06:00:00 12.8 3 Norte 13 Noroeste 0 -- -- 83
2018-04-21 05:00:00 12.1 10 Oeste 18 Sudoeste 0 -- -- 88
2018-04-21 04:00:00 12.3 9 Oeste 17 Sudoeste 0 -- -- 85
2018-04-21 03:00:00 13.4 5 Este 16 Este 0 -- -- 76
2018-04-21 02:00:00 13.9 12 Este 27 Este 0 -- -- 74
2018-04-21 01:00:00 14.7 11 Sudeste 19 Sudeste 0 -- -- 68
2018-04-21 00:00:00 15.3 12 Sudeste 21 Sudeste 0 -- -- 63
2018-04-20 23:00:00 16.1 10 Sudeste 17 Sudeste 0 -- -- 57
2018-04-20 22:00:00 16.8 6 Sudeste 20 Sudeste 0 -- -- 54
2018-04-20 21:00:00 17.3 9 Sudeste 23 Sur 0 -- -- 52
2018-04-20 20:00:00 18.3 14 Sur 22 Sur 0 -- -- 61
2018-04-20 19:00:00 20.8 12 Sudeste 24 Sudeste 0 -- -- 52
2018-04-20 18:00:00 21.5 13 Sudeste 27 Sudeste 0 -- -- 46
2018-04-20 17:00:00 21.8 17 Sudeste 29 Sudeste 0 -- -- 45
2018-04-20 16:00:00 21.9 14 Sudeste 27 Sudeste 0 -- -- 45
2018-04-20 15:00:00 21.8 16 Sudeste 30 Sudeste 0 -- -- 39
2018-04-20 14:00:00 20.9 15 Sudeste 28 Sudeste 0 -- -- 45
2018-04-20 13:00:00 19.9 12 Sudeste 25 Este 0 -- -- 50
2018-04-20 12:00:00 18 12 Este 22 Este 0 -- -- 57
2018-04-20 11:00:00 16.1 8 Este 19 Este 0 -- -- 64
2018-04-20 10:00:00 14.5 9 Este 16 Este 0 -- -- 71
2018-04-20 09:00:00 12 10 Este 14 Este 0 -- -- 81
2018-04-20 08:00:00 10.4 5 Este 9 Sudeste 0 -- -- 89
2018-04-20 07:00:00 10.9 6 Sudeste 18 Este 0 -- -- 88
2018-04-20 06:00:00 11.1 8 Este 21 Este 0 -- -- 87
2018-04-20 05:00:00 11.9 10 Sudeste 23 Sudeste 0 -- -- 81
2018-04-20 04:00:00 12.5 8 Este 19 Sudeste 0 -- -- 75
2018-04-20 03:00:00 13.2 11 Sudeste 23 Sudeste 0 -- -- 72
2018-04-20 02:00:00 14.1 15 Sudeste 24 Sudeste 0 -- -- 66
2018-04-20 01:00:00 14.6 11 Sudeste 17 Sudeste 0 -- -- 63
2018-04-20 00:00:00 14.4 8 Sur 14 Sudeste 0 -- -- 65
2018-04-19 23:00:00 15.3 5 Sur 15 Sur 0 -- -- 65
2018-04-19 22:00:00 16.7 9 Sur 18 Sudeste 0 -- -- 59
2018-04-19 21:00:00 20 8 Sudeste 17 Sudeste 0 -- -- 44
2018-04-19 20:00:00 21.9 10 Sudeste 22 Sudeste 0 -- -- 37
2018-04-19 19:00:00 23.1 9 Sudeste 22 Sudeste 0 -- -- 38
2018-04-19 18:00:00 23.1 11 Sudeste 24 Este 0 -- -- 35
2018-04-19 17:00:00 23.4 13 Sur 28 Sudeste 0 -- -- 34
2018-04-19 16:00:00 23.1 12 Sudeste 27 Sudeste 0 -- -- 39
2018-04-19 15:00:00 22.6 12 Sudeste 27 Sudeste 0 -- -- 37
2018-04-19 14:00:00 21.5 13 Sudeste 31 Este 0 -- -- 37
2018-04-19 13:00:00 20.3 16 Sudeste 30 Sudeste 0 -- -- 41
2018-04-19 12:00:00 18.8 16 Sudeste 26 Sudeste 0 -- -- 48
2018-04-19 11:00:00 16.8 11 Este 20 Este 0 -- -- 54
2018-04-19 10:00:00 15.2 9 Sudeste 18 Sudeste 0 -- -- 58
2018-04-19 09:00:00 13.7 10 Sudeste 16 Sudeste 0 -- -- 56
2018-04-19 08:00:00 11.8 9 Sudeste 14 Sudeste 0 -- -- 60
2018-04-19 07:00:00 12.1 9 Sudeste 14 Sudeste 0 -- -- 59
2018-04-19 06:00:00 12.2 9 Sudeste 18 Sudeste 0 -- -- 58
2018-04-19 05:00:00 13.2 10 Sudeste 16 Sudeste 0 -- -- 54
2018-04-19 04:00:00 13.2 10 Sudeste 19 Sur 0 -- -- 54
2018-04-19 03:00:00 13.8 12 Sudeste 19 Sudeste 0 -- -- 51
2018-04-19 02:00:00 14 13 Sudeste 21 Sudeste 0 -- -- 51
2018-04-19 01:00:00 14.9 13 Sudeste 21 Sudeste 0 -- -- 49
2018-04-19 00:00:00 16.4 12 Sudeste 18 Sudeste 0 -- -- 47
2018-04-18 23:00:00 17.7 6 Sudeste 10 Sudeste 0 -- -- 54
2018-04-18 22:00:00 18.8 8 Sur 12 Sudeste -- -- -- 52
2018-04-18 21:00:00 20.2 9 Sur 13 Sur 0 -- -- 49
2018-04-18 20:00:00 23.3 9 Sudeste 17 Sudeste 0 -- -- 38
2018-04-18 19:00:00 24.3 9 Sudeste 21 Sudeste 0 -- -- 33
2018-04-18 18:00:00 24.4 8 Sudeste 19 Sudeste 0 -- -- 34
2018-04-18 17:00:00 24 10 Sudeste 21 Este 0 -- -- 34
2018-04-18 16:00:00 23.9 6 Sudeste 22 Este 0 -- -- 40
2018-04-18 15:00:00 22.8 11 Sudeste 23 Este 0 -- -- 42
2018-04-18 14:00:00 21.5 13 Sudeste 24 Sudeste 0 -- -- 45
2018-04-18 13:00:00 20.3 12 Sudeste 25 Este 0 -- -- 50
2018-04-18 12:00:00 18.7 13 Sudeste 23 Sudeste 0 -- -- 52
2018-04-18 11:00:00 17 11 Sudeste 20 Sudeste 0 -- -- 56
2018-04-18 10:00:00 15.1 9 Sudeste 16 Este 0 -- -- 59
2018-04-18 09:00:00 14.2 8 Sudeste 12 Sudeste 0 -- -- 60
2018-04-18 08:00:00 11.2 6 Sudeste 11 Sudeste 0 -- -- 72
2018-04-18 07:00:00 11.2 5 Este 7 Sudeste 0 -- -- 77
2018-04-18 06:00:00 11.7 4 Sudeste 10 Sudeste 0 -- -- 73
2018-04-18 05:00:00 12.4 6 Sudeste 9 Sudeste 0 -- -- 70
2018-04-18 04:00:00 12.8 5 Sudeste 8 Sudeste 0 -- -- 70
2018-04-18 03:00:00 14 6 Sudeste 9 Sudeste 0 -- -- 63
2018-04-18 02:00:00 14 3 Este 8 Sudeste 0 -- -- 64
2018-04-18 01:00:00 14.1 3 Este 4 Nordeste 0 -- -- 64
2018-04-18 00:00:00 14.9 3 Este 6 Este 0 -- -- 63
2018-04-17 23:00:00 16 3 Este 10 Este 0 -- -- 63
2018-04-17 22:00:00 16.9 4 Nordeste 9 Nordeste 0 -- -- 62
2018-04-17 21:00:00 18.7 5 Nordeste 11 Nordeste 0 -- -- 58
2018-04-17 20:00:00 21 5 Nordeste 12 Nordeste 0 -- -- 48
2018-04-17 19:00:00 21.6 5 Norte 15 Nordeste 0 -- -- 41
2018-04-17 18:00:00 21.6 7 Nordeste 15 Este 0 -- -- 41
2018-04-17 17:00:00 21.5 7 Sudeste 18 Este 0 -- -- 43
2018-04-17 16:00:00 20.7 6 Este 16 Nordeste 0 -- -- 42
2018-04-17 15:00:00 19.8 5 Este 12 Este 0 -- -- 49
2018-04-17 14:00:00 18.6 8 Este 14 Este 0 -- -- 48
2018-04-17 13:00:00 17.6 4 Este 15 Este 0 -- -- 50
2018-04-17 12:00:00 15.6 9 Nordeste 19 Este 0 -- -- 58
2018-04-17 11:00:00 13.9 10 Este 17 Este 0 -- -- 68
2018-04-17 10:00:00 12.4 4 Nordeste 8 Nordeste 0 -- -- 75
2018-04-17 09:00:00 9.3 2 Nordeste 6 Este 0 -- -- 83
2018-04-17 08:00:00 6.7 2 Este 5 Nordeste 0 -- -- 89
2018-04-17 07:00:00 6.4 3 Norte 9 Noroeste 0 -- -- 89
2018-04-17 06:00:00 6.4 3 Oeste 5 Noroeste 0 -- -- 88
2018-04-17 05:00:00 7.5 2 Noroeste 4 Oeste 0 -- -- 82
2018-04-17 04:00:00 7.8 2 Oeste 5 Sudeste 0 -- -- 82
2018-04-17 03:00:00 9.3 3 Este 8 Este 0 -- -- 76
2018-04-17 02:00:00 9.7 5 Este 8 Este 0 -- -- 73
2018-04-17 01:00:00 9.1 0 Calma 6 Norte 0 -- -- 78
2018-04-17 00:00:00 9.6 2 Noroeste 6 Nordeste 0 -- -- 77
2018-04-16 23:00:00 10.2 2 Norte 7 Norte 0 -- -- 77
2018-04-16 22:00:00 11 3 Noroeste 9 Noroeste 0 -- -- 73
2018-04-16 21:00:00 12.5 5 Noroeste 14 Norte 0 -- -- 68
2018-04-16 20:00:00 14.9 9 Noroeste 20 Noroeste 0 -- -- 56
2018-04-16 19:00:00 15.5 11 Noroeste 23 Noroeste 0 -- -- 56
2018-04-16 18:00:00 15.3 13 Noroeste 21 Noroeste 0 -- -- 55
2018-04-16 17:00:00 15.2 13 Noroeste 28 Oeste 0 -- -- 57
2018-04-16 16:00:00 14.4 11 Noroeste 24 Noroeste 0 -- -- 61
2018-04-16 15:00:00 13.7 13 Noroeste 25 Noroeste 0 -- -- 57
2018-04-16 14:00:00 13 12 Oeste 25 Noroeste 0 -- -- 61
2018-04-16 13:00:00 11.9 12 Noroeste 22 Noroeste 0 -- -- 72
2018-04-16 12:00:00 10.7 13 Noroeste 23 Noroeste 0 -- -- 76
2018-04-16 11:00:00 8.7 13 Noroeste 23 Noroeste 0 -- -- 86
2018-04-16 10:00:00 7.6 14 Noroeste 32 Noroeste 0 -- -- 92
2018-04-16 09:00:00 6.5 18 Noroeste 29 Noroeste 0 -- -- 97
2018-04-16 08:00:00 6.3 18 Noroeste 27 Oeste 0 -- -- 96
2018-04-16 07:00:00 7.1 13 Oeste 25 Noroeste 0 -- -- 96
2018-04-16 06:00:00 6.9 12 Noroeste 23 Oeste 0 -- -- 97
2018-04-16 05:00:00 6.8 17 Noroeste 26 Noroeste 0 -- -- 95
2018-04-16 04:00:00 7.6 16 Noroeste 28 Oeste 0 -- -- 96
2018-04-16 03:00:00 7.9 13 Noroeste 31 Noroeste 0 -- -- 96
2018-04-16 02:00:00 8 19 Noroeste 39 Noroeste 0 -- -- 96
2018-04-16 01:00:00 9.1 17 Oeste 33 Oeste 1.8 -- -- 95
2018-04-16 00:00:00 9.2 16 Oeste 47 Noroeste 2.4 -- -- 97
2018-04-15 23:00:00 11.5 21 Oeste 42 Noroeste 0.4 -- -- 92
2018-04-15 22:00:00 12.3 14 Sur 26 Sur 0 -- -- 93
2018-04-15 21:00:00 12.8 18 Sur 28 Sur 0 -- -- 88
2018-04-15 20:00:00 13.1 13 Sur 26 Sur 0 -- -- 87
2018-04-15 19:00:00 13.9 16 Sudoeste 28 Sudoeste 0 -- -- 84
2018-04-15 18:00:00 15 15 Sur 27 Sur 0 -- -- 78
2018-04-15 17:00:00 14.9 19 Sudoeste 28 Sudoeste 0 -- -- 75
2018-04-15 16:00:00 16.3 17 Sudoeste 26 Sudoeste 0 -- -- 69
2018-04-15 15:00:00 15.1 14 Sudoeste 24 Sudoeste 0 -- -- 72
2018-04-15 14:00:00 14 9 Sur 18 Sur 0 -- -- 73
2018-04-15 13:00:00 12.5 11 Sudoeste 17 Sur 0 -- -- 75
2018-04-15 12:00:00 11.8 6 Sur 12 Sur 0 -- -- 80
2018-04-15 11:00:00 10.6 5 Sudeste 9 Sudeste 0 -- -- 85
2018-04-15 10:00:00 9.1 2 Sudoeste 5 Este 0 -- -- 91
2018-04-15 09:00:00 8.1 3 Sudeste 6 Sudeste 0 -- -- 95
2018-04-15 08:00:00 7.2 3 Sudeste 5 Sudoeste 0 -- -- 97
2018-04-15 07:00:00 6.4 3 Este 7 Sudoeste 0 -- -- 97
2018-04-15 06:00:00 5.8 5 Oeste 10 Oeste 0 -- -- 95
2018-04-15 05:00:00 6.8 7 Oeste 14 Oeste 0 -- -- 95
2018-04-15 04:00:00 7 10 Oeste 14 Noroeste 0 -- -- 93
2018-04-15 03:00:00 7.4 12 Oeste 14 Oeste 0 -- -- 91
2018-04-15 02:00:00 7.8 9 Oeste 16 Oeste 0 -- -- 89
2018-04-15 01:00:00 8.6 10 Oeste 19 Oeste 0 -- -- 89
2018-04-15 00:00:00 9.4 14 Oeste 20 Oeste 0 -- -- 86
2018-04-14 23:00:00 9.8 9 Oeste 16 Oeste 0 -- -- 87
2018-04-14 22:00:00 10.6 7 Noroeste 17 Noroeste 0 -- -- 83
2018-04-14 21:00:00 12.7 12 Noroeste 23 Noroeste 0 -- -- 78
2018-04-14 20:00:00 15.6 18 Noroeste 31 Oeste 0 -- -- 63
2018-04-14 19:00:00 16.3 13 Noroeste 25 Noroeste 0 -- -- 58
2018-04-14 18:00:00 16.1 15 Noroeste 23 Noroeste 0 -- -- 58
2018-04-14 17:00:00 17 12 Noroeste 24 Noroeste 0 -- -- 49
2018-04-14 16:00:00 17.1 12 Oeste 24 Noroeste 0 -- -- 56
2018-04-14 15:00:00 16.4 12 Oeste 23 Oeste 0 -- -- 57
2018-04-14 14:00:00 16 9 Oeste 19 Oeste 0 -- -- 59
2018-04-14 13:00:00 14 8 Oeste 17 Oeste 0 -- -- 67
2018-04-14 12:00:00 13.6 8 Noroeste 13 Noroeste 0 -- -- 72
2018-04-14 11:00:00 11.5 6 Noroeste 12 Noroeste 0 -- -- 84
2018-04-14 10:00:00 9.3 6 Noroeste 9 Oeste 0 -- -- 93
2018-04-14 09:00:00 7.2 6 Oeste 15 Noroeste 0 -- -- 96
2018-04-14 08:00:00 5.2 7 Oeste 16 Noroeste 0 -- -- 96
2018-04-14 07:00:00 5.1 8 Oeste 13 Oeste 0 -- -- 95
2018-04-14 06:00:00 5.1 8 Oeste 17 Oeste 0 -- -- 93
2018-04-14 05:00:00 6.1 9 Oeste 17 Noroeste 0 -- -- 93
2018-04-14 04:00:00 5.5 7 Oeste 12 Oeste 0 -- -- 93
2018-04-14 03:00:00 5.8 6 Oeste 13 Oeste 0 -- -- 92
2018-04-14 02:00:00 6.4 8 Oeste 12 Oeste 0 -- -- 89
2018-04-14 01:00:00 6.6 6 Oeste 10 Oeste 0 -- -- 90
2018-04-14 00:00:00 6.5 6 Oeste 12 Noroeste 0 -- -- 91
2018-04-13 23:00:00 7.4 5 Noroeste 12 Noroeste 0 -- -- 88
2018-04-13 22:00:00 8.6 4 Noroeste 9 Oeste 0 -- -- 82
2018-04-13 21:00:00 9.5 6 Oeste 15 Oeste 0 -- -- 82
2018-04-13 20:00:00 12.1 5 Sur 20 Este 0 -- -- 72
2018-04-13 19:00:00 13 8 Sudeste 17 Noroeste 0 -- -- 66
2018-04-13 18:00:00 12.9 8 Norte 22 Noroeste 0 -- -- 62
2018-04-13 17:00:00 12.2 7 Noroeste 17 Norte 0 -- -- 69
2018-04-13 16:00:00 12.2 5 Sudeste 11 Sudeste 0 -- -- 65
2018-04-13 15:00:00 11.2 6 Sudeste 13 Sudeste 0 -- -- 66
2018-04-13 14:00:00 10.9 9 Este 16 Este 0 -- -- 68
2018-04-13 13:00:00 10 8 Este 22 Este 0 -- -- 75
2018-04-13 12:00:00 8.7 12 Sudeste 20 Sudeste 0 -- -- 82
2018-04-13 11:00:00 7.2 12 Sudeste 20 Sudeste 0 -- -- 89
2018-04-13 10:00:00 6.1 9 Sudeste 17 Sudeste 0 -- -- 98
2018-04-13 09:00:00 4.7 9 Sudeste 20 Sudeste 0 -- -- 98
2018-04-13 08:00:00 3.6 5 Sudeste 13 Sudeste 0 -- -- 96
2018-04-13 07:00:00 4 7 Sudeste 11 Sudeste 0 -- -- 96
2018-04-13 06:00:00 3.6 7 Sudeste 10 Sudeste 0 -- -- 96
2018-04-13 05:00:00 3.8 9 Sur 13 Sur 0 -- -- 95
2018-04-13 04:00:00 4.1 7 Sur 16 Sur 0 -- -- 93
2018-04-13 03:00:00 4.2 9 Sur 12 Sur 0 -- -- 93
2018-04-13 02:00:00 4.5 7 Sur 13 Sudoeste 0 -- -- 91
2018-04-13 01:00:00 5.2 9 Sur 18 Sudoeste 0 -- -- 90
2018-04-13 00:00:00 5.4 4 Oeste 19 Sudoeste 0 -- -- 89
2018-04-12 23:00:00 7.1 12 Oeste 20 Oeste 0 -- -- 88
2018-04-12 22:00:00 6.7 10 Oeste 22 Sudoeste 0.2 -- -- 92
2018-04-12 21:00:00 7.2 11 Oeste 34 Oeste 1 -- -- 90
2018-04-12 20:00:00 9.2 14 Sudoeste 25 Sudoeste 0.8 -- -- 87
2018-04-12 19:00:00 7.7 12 Sudoeste 22 Sudoeste 0.4 -- -- 93
2018-04-12 18:00:00 7.1 10 Sur 25 Oeste 1.4 -- -- 94
2018-04-12 17:00:00 7.1 19 Oeste 47 Oeste 5 -- -- 90
2018-04-12 16:00:00 9.3 19 Sur 30 Sur 3 -- -- 94
2018-04-12 15:00:00 8.7 17 Sur 39 Sudoeste 0.4 -- -- 93
2018-04-12 14:00:00 8.9 17 Sur 30 Sudoeste 0 -- -- 87
2018-04-12 13:00:00 9.1 14 Sur 26 Sur 0.6 -- -- 83
2018-04-12 12:00:00 8.7 13 Sur 26 Sudoeste 0 -- -- 88
2018-04-12 11:00:00 8.8 15 Sudoeste 31 Sudoeste 0 -- -- 80
2018-04-12 10:00:00 8.7 16 Sudoeste 27 Sudoeste 0 -- -- 80
2018-04-12 09:00:00 6.8 9 Sur 17 Sudoeste 0 -- -- 91
2018-04-12 08:00:00 5.5 9 Sudoeste 17 Oeste 0 -- -- 93
2018-04-12 07:00:00 5.9 8 Sudoeste 17 Oeste 0 -- -- 92
2018-04-12 06:00:00 6.3 9 Oeste 27 Oeste 0 -- -- 93
2018-04-12 05:00:00 7.2 17 Oeste 27 Oeste 0 -- -- 91
2018-04-12 04:00:00 7.1 19 Oeste 25 Oeste 0 -- -- 90
2018-04-12 03:00:00 7 15 Oeste 25 Oeste 0 -- -- 89
2018-04-12 02:00:00 6.7 13 Oeste 22 Noroeste 0 -- -- 88
2018-04-12 01:00:00 5.7 16 Oeste 26 Oeste 0 -- -- 88
2018-04-12 00:00:00 6.4 18 Oeste 24 Oeste 0 -- -- 84
2018-04-11 23:00:00 7.2 14 Oeste 32 Oeste 0 -- -- 81
2018-04-11 22:00:00 8.3 20 Oeste 43 Noroeste 0 -- -- 75
2018-04-11 21:00:00 9.3 27 Noroeste 46 Noroeste 0 -- -- 73
2018-04-11 20:00:00 10.7 23 Oeste 42 Noroeste 0 -- -- 63
2018-04-11 19:00:00 11.7 31 Noroeste 54 Noroeste 0 -- -- 55
2018-04-11 18:00:00 12.5 38 Noroeste 60 Oeste 0 -- -- 50
2018-04-11 17:00:00 12.1 36 Oeste 54 Noroeste 0 -- -- 55
2018-04-11 16:00:00 12.2 27 Oeste 49 Noroeste 0 -- -- 52
2018-04-11 15:00:00 11.6 30 Oeste 49 Noroeste 0 -- -- 56
2018-04-11 14:00:00 10.4 31 Noroeste 49 Noroeste 0 -- -- 66
2018-04-11 13:00:00 9.4 32 Noroeste 50 Oeste 0 -- -- 70
2018-04-11 12:00:00 8 25 Oeste 41 Noroeste 0 -- -- 80
2018-04-11 11:00:00 5.8 27 Noroeste 48 Noroeste 0 -- -- 86
2018-04-11 10:00:00 4.8 33 Noroeste 46 Noroeste 0 -- -- 89
2018-04-11 09:00:00 4.3 30 Noroeste 42 Noroeste 0 -- -- 93
2018-04-11 08:00:00 4.1 24 Noroeste 44 Noroeste 0 -- -- 94
2018-04-11 07:00:00 4.2 30 Noroeste 47 Noroeste 0 -- -- 94
2018-04-11 06:00:00 4.1 24 Noroeste 46 Noroeste 0.4 -- -- 94
2018-04-11 05:00:00 4.5 19 Oeste 42 Oeste 0 -- -- 94
2018-04-11 04:00:00 4.3 24 Oeste 36 Oeste 0.4 -- -- 93
2018-04-11 03:00:00 4.5 22 Oeste 36 Oeste 0 -- -- 93
2018-04-11 02:00:00 4.6 25 Oeste 47 Oeste 0 -- -- 93
2018-04-11 01:00:00 5.1 25 Oeste 41 Oeste 0 -- -- 89
2018-04-11 00:00:00 5.2 26 Oeste 42 Oeste 0 -- -- 89
2018-04-10 23:00:00 4.7 23 Oeste 35 Oeste 0 -- -- 90
2018-04-10 22:00:00 4.8 21 Oeste 35 Oeste 0 -- -- 92
2018-04-10 21:00:00 4.8 23 Oeste 67 Noroeste 1.2 -- -- 93
2018-04-10 20:00:00 8.1 35 Oeste 71 Oeste 0 -- -- 81
2018-04-10 19:00:00 8.5 35 Oeste 56 Noroeste 0.8 -- -- 83
2018-04-10 18:00:00 8.1 28 Oeste 48 Noroeste 1.2 -- -- 90
2018-04-10 17:00:00 9.5 38 Oeste 64 Oeste 0 -- -- 83
2018-04-10 16:00:00 9.5 34 Oeste 51 Oeste 0.4 -- -- 92
2018-04-10 15:00:00 9.8 33 Oeste 59 Sudoeste 1 -- -- 89
2018-04-10 14:00:00 8.8 19 Sudoeste 32 Sudoeste 1.8 -- -- 95
2018-04-10 13:00:00 8 21 Sudoeste 39 Sudoeste 1.6 -- -- 95
2018-04-10 12:00:00 7.1 20 Sudoeste 44 Sur 1.4 -- -- 94
2018-04-10 11:00:00 6.8 28 Sudoeste 48 Sudoeste 0.2 -- -- 92
2018-04-10 10:00:00 6.7 24 Sudoeste 37 Sudoeste 0.4 -- -- 93
2018-04-10 09:00:00 6.3 13 Sur 22 Sur 1.2 -- -- 94
2018-04-10 08:00:00 6.7 13 Sudoeste 22 Sudoeste 0 -- -- 89
2018-04-10 07:00:00 7.2 10 Sudoeste 22 Sudoeste 0 -- -- 86
2018-04-10 06:00:00 7 16 Sudoeste 30 Oeste 0 -- -- 87
2018-04-10 05:00:00 7.2 23 Oeste 31 Oeste 0 -- -- 88
2018-04-10 04:00:00 7 14 Oeste 23 Oeste 0 -- -- 90
2018-04-10 03:00:00 7.2 17 Oeste 24 Oeste 0 -- -- 89
2018-04-10 02:00:00 7.1 14 Oeste 18 Oeste 0 -- -- 89
2018-04-10 01:00:00 7.4 12 Oeste 22 Oeste 0 -- -- 87
2018-04-10 00:00:00 7.1 11 Oeste 17 Oeste 0 -- -- 87
2018-04-09 23:00:00 7.6 11 Oeste 20 Oeste 0 -- -- 82
2018-04-09 22:00:00 8.5 12 Oeste 25 Noroeste 0 -- -- 77
2018-04-09 21:00:00 9 19 Oeste 38 Oeste 0 -- -- 69
2018-04-09 20:00:00 9.6 23 Oeste 36 Oeste 0 -- -- 69
2018-04-09 19:00:00 9.3 19 Oeste 44 Oeste 0 -- -- 76
2018-04-09 18:00:00 10.1 21 Oeste 39 Oeste 0 -- -- 64
2018-04-09 17:00:00 10.4 25 Oeste 44 Oeste 0 -- -- 57
2018-04-09 16:00:00 10.6 28 Oeste 43 Oeste 0 -- -- 56
2018-04-09 15:00:00 9.9 28 Oeste 40 Oeste 0 -- -- 61
2018-04-09 14:00:00 9.1 21 Oeste 37 Oeste 0 -- -- 67
2018-04-09 13:00:00 8.3 23 Oeste 37 Oeste 0 -- -- 66
2018-04-09 12:00:00 7.5 18 Oeste 30 Sudoeste 0 -- -- 69
2018-04-09 11:00:00 6.9 17 Sudoeste 26 Oeste 0 -- -- 76
2018-04-09 10:00:00 5.7 14 Sudoeste 28 Sudoeste 0 -- -- 83
2018-04-09 09:00:00 4.2 17 Oeste 28 Oeste 0 -- -- 88
2018-04-09 08:00:00 3.6 13 Sudoeste 22 Oeste 0 -- -- 91
2018-04-09 07:00:00 3.4 18 Oeste 27 Oeste 0 -- -- 92
2018-04-09 06:00:00 3.6 17 Oeste 34 Oeste 0 -- -- 92
2018-04-09 05:00:00 4 22 Oeste 40 Oeste 0 -- -- 89
2018-04-09 04:00:00 4.7 28 Oeste 37 Oeste 0 -- -- 86
2018-04-09 03:00:00 4.2 16 Oeste 33 Oeste 0 -- -- 90
2018-04-09 02:00:00 4.6 21 Oeste 38 Sudoeste 0 -- -- 88
2018-04-09 01:00:00 5.3 23 Oeste 40 Oeste 0.2 -- -- 88
2018-04-09 00:00:00 5.8 15 Oeste 33 Noroeste 0.2 -- -- 90
2018-04-08 23:00:00 6.1 26 Oeste 56 Oeste 5.2 -- -- 91
2018-04-08 22:00:00 9.1 15 Sudoeste 29 Sudoeste 1 -- -- 93
2018-04-08 21:00:00 9.6 14 Sudoeste 38 Sudoeste 0.4 -- -- 88
2018-04-08 20:00:00 12.4 15 Sudoeste 31 Sudoeste 0 -- -- 58
2018-04-08 19:00:00 13.2 17 Sudoeste 41 Oeste 0 -- -- 55
2018-04-08 18:00:00 13 28 Oeste 40 Oeste 0 -- -- 59
2018-04-08 17:00:00 13.1 27 Oeste 39 Oeste 0 -- -- 63
2018-04-08 16:00:00 12.9 26 Oeste 44 Oeste 0 -- -- 64
2018-04-08 15:00:00 12.7 22 Oeste 37 Oeste 0 -- -- 66
2018-04-08 14:00:00 11 22 Oeste 37 Oeste 0 -- -- 75
2018-04-08 13:00:00 10.8 19 Oeste 32 Noroeste 0 -- -- 73
2018-04-08 12:00:00 10.3 21 Noroeste 36 Noroeste 0 -- -- 79
2018-04-08 11:00:00 7.7 21 Noroeste 35 Noroeste 0 -- -- 90
2018-04-08 10:00:00 7.2 19 Noroeste 31 Noroeste 0 -- -- 94
2018-04-08 09:00:00 6.9 19 Noroeste 31 Oeste 0.2 -- -- 96
2018-04-08 08:00:00 7 20 Noroeste 32 Oeste 1 -- -- 97
2018-04-08 07:00:00 6.9 14 Noroeste 23 Oeste 0.8 -- -- 96
2018-04-08 06:00:00 6.6 14 Oeste 21 Oeste 0 -- -- 96
2018-04-08 05:00:00 6.6 13 Oeste 26 Oeste 0 -- -- 94
2018-04-08 04:00:00 6.4 11 Oeste 15 Oeste 0 -- -- 94
2018-04-08 03:00:00 6.8 7 Oeste 14 Oeste 0 -- -- 93
2018-04-08 02:00:00 6.5 9 Oeste 17 Oeste 0 -- -- 93
2018-04-08 01:00:00 6.3 6 Sudoeste 11 Oeste 0 -- -- 93
2018-04-08 00:00:00 6.8 7 Oeste 13 Sudoeste 0 -- -- 93
2018-04-07 23:00:00 6.9 7 Oeste 17 Oeste 0.2 -- -- 91
2018-04-07 22:00:00 7.2 15 Oeste 33 Oeste 1.6 -- -- 91
2018-04-07 21:00:00 8.8 11 Sudoeste 19 Sudoeste 0 -- -- 85
2018-04-07 20:00:00 9.8 12 Sudoeste 25 Sudoeste 0 -- -- 79
2018-04-07 19:00:00 9.7 12 Sudoeste 25 Sudoeste 0.2 -- -- 82
2018-04-07 18:00:00 8.3 15 Sudoeste 44 Sudoeste 2.4 -- -- 91
2018-04-07 17:00:00 11.3 27 Sudoeste 50 Sudoeste 0 -- -- 72
2018-04-07 16:00:00 14.3 18 Sudoeste 32 Sudoeste 0 -- -- 57
2018-04-07 15:00:00 12.6 15 Sudoeste 32 Oeste 0 -- -- 66
2018-04-07 14:00:00 12.2 13 Sudoeste 24 Sudoeste 0 -- -- 67
2018-04-07 13:00:00 11.4 9 Sudoeste 18 Oeste 0 -- -- 71
2018-04-07 12:00:00 9.3 8 Sudoeste 17 Oeste 0 -- -- 78
2018-04-07 11:00:00 8 7 Oeste 14 Sudoeste 0 -- -- 85
2018-04-07 10:00:00 6.9 6 Sudoeste 10 Sudoeste 0 -- -- 93
2018-04-07 09:00:00 6.7 0 Calma 6 Sur 0 -- -- 94
2018-04-07 08:00:00 6.5 4 Sur 8 Sudoeste 0.8 -- -- 94
2018-04-07 07:00:00 6.7 5 Sudeste 8 Sudeste 1.4 -- -- 93
2018-04-07 06:00:00 6.8 7 Oeste 15 Noroeste 1.2 -- -- 93
2018-04-07 05:00:00 6.9 13 Noroeste 23 Noroeste 0.4 -- -- 93
2018-04-07 04:00:00 7.9 14 Oeste 26 Oeste 0.6 -- -- 92
2018-04-07 03:00:00 8.7 13 Oeste 20 Oeste 1 -- -- 93
2018-04-07 02:00:00 9 6 Oeste 26 Oeste 0.8 -- -- 93
2018-04-07 01:00:00 9.6 15 Oeste 24 Oeste 0.2 -- -- 93
2018-04-07 00:00:00 9.7 13 Oeste 27 Noroeste 0 -- -- 93
2018-04-06 23:00:00 11 14 Noroeste 24 Oeste 0 -- -- 81
2018-04-06 22:00:00 11.6 14 Oeste 31 Oeste 0 -- -- 80
2018-04-06 21:00:00 14 12 Sudoeste 20 Sudoeste 0 -- -- 71
2018-04-06 20:00:00 15.5 11 Sudoeste 39 Sudoeste 0 -- -- 64
2018-04-06 19:00:00 17.4 21 Sudoeste 42 Sur 0 -- -- 61
2018-04-06 18:00:00 17.7 27 Sudoeste 41 Sudoeste 0 -- -- 57
2018-04-06 17:00:00 18.4 21 Sur 39 Sur 0 -- -- 55
2018-04-06 16:00:00 19.2 20 Sudoeste 36 Sudoeste 0 -- -- 48
2018-04-06 15:00:00 19.5 14 Sur 30 Sur 0 -- -- 49
2018-04-06 14:00:00 18.7 17 Sur 32 Sur 0 -- -- 48
2018-04-06 13:00:00 17.8 8 Sur 16 Sur 0 -- -- 51
2018-04-06 12:00:00 16.7 7 Sudeste 13 Sudeste 0 -- -- 64
2018-04-06 11:00:00 14.5 3 Oeste 8 Noroeste 0 -- -- 68
2018-04-06 10:00:00 11 7 Noroeste 11 Oeste 0 -- -- 80
2018-04-06 09:00:00 7.3 7 Oeste 14 Oeste 0 -- -- 87
2018-04-06 08:00:00 7 10 Oeste 15 Oeste 0 -- -- 81
2018-04-06 07:00:00 8.4 2 Oeste 6 Sudeste 0 -- -- 69
2018-04-06 06:00:00 8.9 7 Sur 9 Sur 0 -- -- 66
2018-04-06 05:00:00 9.4 4 Este 9 Sur 0 -- -- 61
2018-04-06 04:00:00 10.8 4 Sur 14 Sudeste 0 -- -- 56
2018-04-06 03:00:00 11.6 11 Sudeste 15 Sudeste 0 -- -- 53
2018-04-06 02:00:00 12.3 9 Sudeste 14 Sudeste 0 -- -- 52
2018-04-06 01:00:00 13.2 7 Sudeste 15 Sur 0 -- -- 52
2018-04-06 00:00:00 14.7 11 Sudeste 18 Sudeste 0 -- -- 45
2018-04-05 23:00:00 14.1 9 Sur 13 Sur 0 -- -- 53
2018-04-05 22:00:00 15.7 5 Sudeste 9 Sudeste 0 -- -- 52
2018-04-05 21:00:00 17.2 4 Sudeste 20 Sudeste 0 -- -- 49
2018-04-05 20:00:00 18.9 10 Sudeste 17 Este 0 -- -- 41
2018-04-05 19:00:00 19.8 10 Sudeste 19 Sudeste 0 -- -- 33
2018-04-05 18:00:00 20.1 11 Sudeste 19 Sudeste 0 -- -- 36
2018-04-05 17:00:00 20.2 10 Sudeste 19 Sudeste 0 -- -- 34
2018-04-05 16:00:00 20 12 Sudeste 22 Sudeste 0 -- -- 36
2018-04-05 15:00:00 19.3 11 Sudeste 26 Sudeste 0 -- -- 41
2018-04-05 14:00:00 18.2 13 Sudeste 23 Nordeste 0 -- -- 44
2018-04-05 13:00:00 16.5 10 Este 24 Sudeste 0 -- -- 49
2018-04-05 12:00:00 15.3 9 Sudeste 18 Este 0 -- -- 60
2018-04-05 11:00:00 13.3 10 Este 17 Este 0 -- -- 69
2018-04-05 10:00:00 10.3 4 Este 14 Este 0 -- -- 81
2018-04-05 09:00:00 8 7 Este 12 Este 0 -- -- 88
2018-04-05 08:00:00 6.1 3 Este 6 Este 0 -- -- 92
2018-04-05 07:00:00 6.2 0 Calma 6 Este 0 -- -- 90
2018-04-05 06:00:00 7.3 4 Este 6 Este 0 -- -- 91
2018-04-05 05:00:00 6.7 0 Calma 4 Oeste 0 -- -- 90
2018-04-05 04:00:00 7.6 3 Este 6 Sudoeste 0 -- -- 88
2018-04-05 03:00:00 7.5 0 Calma 5 Norte 0 -- -- 85
2018-04-05 02:00:00 8.3 0 Calma 7 Oeste 0 -- -- 82
2018-04-05 01:00:00 8.3 4 Oeste 8 Oeste 0 -- -- 81
2018-04-05 00:00:00 8.8 4 Oeste 8 Noroeste 0 -- -- 78
2018-04-04 23:00:00 9.3 5 Noroeste 14 Oeste 0 -- -- 76
2018-04-04 22:00:00 10.8 11 Oeste 14 Oeste 0 -- -- 69
2018-04-04 21:00:00 12 5 Oeste 19 Oeste 0 -- -- 67
2018-04-04 20:00:00 14.7 16 Oeste 33 Oeste 0 -- -- 57
2018-04-04 19:00:00 15.8 21 Oeste 37 Noroeste 0 -- -- 52
2018-04-04 18:00:00 16.2 24 Noroeste 37 Oeste 0 -- -- 57
2018-04-04 17:00:00 16.1 20 Oeste 39 Oeste 0 -- -- 55
2018-04-04 16:00:00 15.9 23 Oeste 39 Oeste 0 -- -- 51
2018-04-04 15:00:00 15.6 24 Oeste 41 Oeste 0 -- -- 47
2018-04-04 14:00:00 14.7 27 Oeste 39 Sudoeste 0 -- -- 55
2018-04-04 13:00:00 12.9 28 Oeste 37 Oeste 0 -- -- 64
2018-04-04 12:00:00 12 19 Oeste 33 Sudoeste 0 -- -- 69
2018-04-04 11:00:00 11.4 20 Oeste 33 Oeste 0 -- -- 74
2018-04-04 10:00:00 10.4 13 Sudoeste 23 Sudoeste 0 -- -- 78
2018-04-04 09:00:00 8.5 12 Sudoeste 26 Sudoeste 0 -- -- 83
2018-04-04 08:00:00 7.9 19 Sudoeste 28 Sudoeste 0 -- -- 87
2018-04-04 07:00:00 7.7 21 Oeste 28 Oeste 0 -- -- 86
2018-04-04 06:00:00 7.6 19 Oeste 24 Oeste 0 -- -- 86
2018-04-04 05:00:00 7.8 14 Oeste 24 Sudoeste 0 -- -- 83
2018-04-04 04:00:00 7.9 10 Sudoeste 26 Oeste 0 -- -- 84
2018-04-04 03:00:00 8.7 12 Sudoeste 23 Oeste 0 -- -- 86
2018-04-04 02:00:00 9.4 11 Sudoeste 21 Sudoeste 0 -- -- 87
2018-04-04 01:00:00 10.3 10 Sudoeste 19 Sudoeste 0 -- -- 84
2018-04-04 00:00:00 11.1 10 Sudoeste 19 Sudoeste 0 -- -- 82
2018-04-03 23:00:00 11.7 12 Sudoeste 20 Sudoeste 0 -- -- 80
2018-04-03 22:00:00 12.3 15 Sudoeste 27 Sudoeste 0 -- -- 75
2018-04-03 21:00:00 13.4 16 Sudoeste 39 Sudoeste 0 -- -- 70
2018-04-03 20:00:00 14.7 23 Sudoeste 40 Sudoeste 0 -- -- 63
2018-04-03 19:00:00 15.8 21 Sudoeste 39 Sudoeste 0 -- -- 56
2018-04-03 18:00:00 16.5 24 Sudoeste 39 Sudoeste 0 -- -- 57
2018-04-03 17:00:00 17.3 24 Sudoeste 41 Sudoeste 0 -- -- 50
2018-04-03 16:00:00 17.4 26 Sudoeste 41 Sudoeste 0 -- -- 51
2018-04-03 15:00:00 16.3 23 Sudoeste 40 Sur 0 -- -- 56
2018-04-03 14:00:00 15.1 25 Sudoeste 37 Oeste 0 -- -- 64
2018-04-03 13:00:00 13.5 18 Sudoeste 30 Sudoeste 0 -- -- 70
2018-04-03 12:00:00 13.2 17 Sudoeste 32 Sudoeste 0 -- -- 70
2018-04-03 11:00:00 12.6 18 Sudoeste 33 Sudoeste 0 -- -- 75
2018-04-03 10:00:00 11.7 11 Sudoeste 17 Sur 0 -- -- 84
2018-04-03 09:00:00 9.4 5 Sudeste 10 Sudoeste 0 -- -- 95
2018-04-03 08:00:00 8.3 7 Sudoeste 14 Sudoeste 0 -- -- 95
2018-04-03 07:00:00 8.9 8 Sur 13 Sudoeste 0 -- -- 94
2018-04-03 06:00:00 8.8 6 Sur 9 Sur 0 -- -- 93
2018-04-03 05:00:00 9.7 7 Sudoeste 13 Sur 0 -- -- 94
2018-04-03 04:00:00 10 8 Sur 16 Sudoeste 0 -- -- 92
2018-04-03 03:00:00 11.1 12 Sudoeste 16 Sudoeste 0 -- -- 91
2018-04-03 02:00:00 11.5 5 Sur 13 Sudoeste 0 -- -- 89
2018-04-03 01:00:00 11.8 6 Sudoeste 24 Sudoeste 0 -- -- 90
2018-04-03 00:00:00 11.6 10 Sudoeste 25 Sudoeste 0 -- -- 88
2018-04-02 23:00:00 11.9 15 Sudoeste 26 Sur 0 -- -- 87
2018-04-02 22:00:00 12.9 14 Sudoeste 30 Sudoeste 0 -- -- 78
2018-04-02 21:00:00 13.7 20 Sudoeste 28 Sudoeste 0 -- -- 70
2018-04-02 20:00:00 14.3 20 Sudoeste 30 Sudoeste 0 -- -- 66
2018-04-02 19:00:00 15.2 22 Sudoeste 35 Sudoeste 0 -- -- 60
2018-04-02 18:00:00 16.3 20 Sudoeste 31 Sudoeste 0 -- -- 58
2018-04-02 17:00:00 17 18 Sudoeste 33 Sur 0 -- -- 58
2018-04-02 16:00:00 17.1 22 Sudoeste 40 Sudoeste 0 -- -- 58
2018-04-02 15:00:00 16.8 19 Sur 32 Sur 0 -- -- 59
2018-04-02 14:00:00 15.8 21 Sur 36 Sur 0 -- -- 60
2018-04-02 13:00:00 14.5 17 Sur 33 Sur 0 -- -- 64
2018-04-02 12:00:00 12.6 21 Sur 36 Sudoeste 0 -- -- 68
2018-04-02 11:00:00 11.4 17 Sur 31 Sur 0 -- -- 68
2018-04-02 10:00:00 10 13 Sur 21 Sur 0 -- -- 64
2018-04-02 09:00:00 8.6 10 Sudeste 13 Sudeste 0 -- -- 58
2018-04-02 08:00:00 8.2 5 Sudeste 9 Este 0 -- -- 57
2018-04-02 07:00:00 9.4 6 Sudeste 17 Sudeste 0 -- -- 53
2018-04-02 06:00:00 8.8 11 Sudeste 15 Sudeste 0 -- -- 58
2018-04-02 05:00:00 8.7 8 Sudeste 13 Sudeste 0 -- -- 58
2018-04-02 04:00:00 9.1 9 Sudeste 15 Sudeste 0 -- -- 55
2018-04-02 03:00:00 9.7 10 Sudeste 17 Sudeste 0 -- -- 53
2018-04-02 02:00:00 10.3 11 Sudeste 18 Sudeste 0 -- -- 52
2018-04-02 01:00:00 11 10 Sudeste 17 Sudeste 0 -- -- 50
2018-04-02 00:00:00 11.7 10 Sudeste 18 Sudeste 0 -- -- 50
2018-04-01 23:00:00 12.6 9 Sudeste 17 Sur 0 -- -- 48
2018-04-01 22:00:00 13.1 6 Sur 10 Sur 0 -- -- 46
2018-04-01 21:00:00 14.6 6 Sur 19 Sur 0 -- -- 42
2018-04-01 20:00:00 16.4 8 Sur 22 Sudeste 0 -- -- 48
2018-04-01 19:00:00 17.3 14 Sudeste 27 Sudeste 0 -- -- 45
2018-04-01 18:00:00 18.1 14 Sudeste 27 Sur 0 -- -- 40
2018-04-01 17:00:00 19 16 Sudeste 28 Este 0 -- -- 35
2018-04-01 16:00:00 18.5 15 Sudeste 27 Sudeste 0 -- -- 34
2018-04-01 15:00:00 17.9 14 Sudeste 26 Sudeste 0 -- -- 36
2018-04-01 14:00:00 16.2 15 Sudeste 27 Sudeste 0 -- -- 45
2018-04-01 13:00:00 14.9 16 Sudeste 29 Sudeste 0 -- -- 47
2018-04-01 12:00:00 13.1 17 Sudeste 27 Sudeste 0 -- -- 52
2018-04-01 11:00:00 11.7 9 Sudeste 15 Este 0 -- -- 61
2018-04-01 10:00:00 8.8 7 Este 11 Este 0 -- -- 69
2018-04-01 09:00:00 6.5 5 Este 9 Este 0 -- -- 74
2018-04-01 08:00:00 5.5 4 Este 7 Este 0 -- -- 77
2018-04-01 07:00:00 5.6 3 Este 8 Sudeste 0 -- -- 77
2018-04-01 06:00:00 6.6 4 Sudeste 8 Sudeste 0 -- -- 72
2018-04-01 05:00:00 6.8 4 Este 8 Este 0 -- -- 72
2018-04-01 04:00:00 7.1 4 Este 6 Este 0 -- -- 70
2018-04-01 03:00:00 7.4 5 Sudeste 8 Sudeste 0 -- -- 69
2018-04-01 02:00:00 7.9 5 Este 8 Sudeste 0 -- -- 67
2018-04-01 01:00:00 7.3 2 Norte 5 Nordeste 0 -- -- 70
2018-04-01 00:00:00 8.1 0 Calma 4 Nordeste 0 -- -- 66
2018-03-31 23:00:00 8.1 0 Calma 5 Noroeste 0 -- -- 66
2018-03-31 22:00:00 8.6 4 Noroeste 12 Noroeste 0 -- -- 65
2018-03-31 21:00:00 9.2 7 Noroeste 15 Noroeste 0 -- -- 67
2018-03-31 20:00:00 12.5 12 Noroeste 22 Oeste 0 -- -- 51
2018-03-31 19:00:00 13.2 13 Noroeste 28 Oeste -- -- -- 48
2018-03-31 18:00:00 13.5 14 Noroeste 29 Norte 0 -- -- 49
2018-03-31 17:00:00 13.1 14 Noroeste 30 Noroeste 0 -- -- 49
2018-03-31 16:00:00 12.4 18 Noroeste 39 Noroeste 0 -- -- 55
2018-03-31 15:00:00 11.8 19 Noroeste 35 Oeste 0 -- -- 57
2018-03-31 14:00:00 10.9 24 Noroeste 38 Noroeste 0 -- -- 60
2018-03-31 13:00:00 10.2 24 Noroeste 40 Noroeste 0 -- -- 62
2018-03-31 12:00:00 9.3 26 Noroeste 37 Oeste 0 -- -- 70
2018-03-31 11:00:00 8 24 Noroeste 36 Noroeste 0 -- -- 78
2018-03-31 10:00:00 6.7 18 Oeste 28 Oeste 0 -- -- 88
2018-03-31 09:00:00 4.9 18 Oeste 28 Oeste 0 -- -- 94
2018-03-31 08:00:00 4.3 16 Oeste 25 Oeste 0 -- -- 95
2018-03-31 07:00:00 4.1 18 Oeste 30 Oeste 0 -- -- 94
2018-03-31 06:00:00 4.5 21 Oeste 28 Oeste 0 -- -- 93
2018-03-31 05:00:00 4.5 19 Oeste 28 Oeste 0 -- -- 93
2018-03-31 04:00:00 4.7 19 Oeste 33 Oeste 0 -- -- 93
2018-03-31 03:00:00 5.9 18 Oeste 32 Oeste 0 -- -- 89
2018-03-31 02:00:00 6 26 Oeste 37 Oeste 0 -- -- 90
2018-03-31 01:00:00 5.8 26 Oeste 50 Oeste 0 -- -- 90
2018-03-31 00:00:00 6.5 32 Oeste 52 Oeste 1 -- -- 87
2018-03-30 23:00:00 7.4 21 Oeste 50 Sudoeste 0 -- -- 85
2018-03-30 22:00:00 7.5 35 Oeste 58 Oeste 0.2 -- -- 81
2018-03-30 21:00:00 9.4 29 Sudoeste 41 Oeste 0 -- -- 56
2018-03-30 20:00:00 10.5 25 Oeste 49 Oeste 0 -- -- 53
2018-03-30 19:00:00 11.6 33 Oeste 52 Oeste 0 -- -- 49
2018-03-30 18:00:00 11.4 35 Oeste 55 Oeste 0 -- -- 52
2018-03-30 17:00:00 11.1 35 Oeste 52 Oeste 0 -- -- 51
2018-03-30 16:00:00 11.1 34 Oeste 53 Oeste 0 -- -- 50
2018-03-30 15:00:00 10 32 Oeste 46 Oeste 0 -- -- 53
2018-03-30 14:00:00 9.4 34 Oeste 49 Oeste 0 -- -- 58
2018-03-30 13:00:00 8.6 31 Oeste 46 Oeste 0 -- -- 63
2018-03-30 12:00:00 8.4 26 Oeste 40 Oeste 0 -- -- 72
2018-03-30 11:00:00 6.9 21 Noroeste 31 Oeste 0 -- -- 81
2018-03-30 10:00:00 6.7 18 Noroeste 31 Oeste 0 -- -- 86
2018-03-30 09:00:00 6 16 Oeste 27 Noroeste 0 -- -- 88
2018-03-30 08:00:00 5.7 18 Oeste 28 Oeste 1 -- -- 92
2018-03-30 07:00:00 6.6 8 Sur 17 Sur 0 -- -- 91
2018-03-30 06:00:00 6.3 9 Sudoeste 19 Sudoeste 0 -- -- 90
2018-03-30 05:00:00 6.4 15 Sudoeste 24 Sudoeste 0 -- -- 87
2018-03-30 04:00:00 6.3 14 Sudoeste 26 Sudoeste 0 -- -- 82
2018-03-30 03:00:00 5.8 15 Sudoeste 26 Oeste 0 -- -- 85
2018-03-30 02:00:00 6.1 23 Oeste 33 Oeste 0 -- -- 84
2018-03-30 01:00:00 6.4 22 Oeste 33 Oeste 0 -- -- 81
2018-03-30 00:00:00 6.8 18 Oeste 31 Oeste 0 -- -- 78
2018-03-29 23:00:00 7.5 19 Oeste 30 Oeste 0 -- -- 76
2018-03-29 22:00:00 7.7 15 Oeste 21 Oeste 0 -- -- 75
2018-03-29 21:00:00 8.8 14 Oeste 31 Oeste 0 -- -- 72
2018-03-29 20:00:00 11.3 18 Oeste 35 Oeste 0 -- -- 61
2018-03-29 19:00:00 12.6 19 Oeste 35 Oeste 0 -- -- 54
2018-03-29 18:00:00 13.5 23 Oeste 32 Oeste 0 -- -- 54
2018-03-29 17:00:00 13.6 18 Oeste 31 Oeste 0 -- -- 54
2018-03-29 16:00:00 13.2 18 Oeste 32 Noroeste 0 -- -- 61
2018-03-29 15:00:00 12.2 16 Oeste 29 Oeste 0 -- -- 61
2018-03-29 14:00:00 10.4 17 Oeste 34 Oeste 0 -- -- 66
2018-03-29 13:00:00 9.9 20 Oeste 35 Noroeste 0 -- -- 69
2018-03-29 12:00:00 9.1 18 Oeste 29 Oeste 0 -- -- 70
2018-03-29 11:00:00 9.3 17 Oeste 27 Oeste 0 -- -- 69
2018-03-29 10:00:00 8.3 17 Noroeste 32 Noroeste 0 -- -- 76
2018-03-29 09:00:00 7.4 10 Noroeste 24 Noroeste 0 -- -- 93
2018-03-29 08:00:00 7.4 16 Noroeste 33 Noroeste 0 -- -- 92
2018-03-29 07:00:00 8.3 22 Noroeste 32 Noroeste 0 -- -- 93
2018-03-29 06:00:00 8.4 18 Noroeste 34 Noroeste 0 -- -- 94
2018-03-29 05:00:00 8.6 19 Noroeste 28 Oeste 0 -- -- 94
2018-03-29 04:00:00 7.6 9 Oeste 21 Noroeste 0 -- -- 94
2018-03-29 03:00:00 8 9 Oeste 18 Oeste 0 -- -- 92
2018-03-29 02:00:00 8.5 8 Noroeste 23 Noroeste 0 -- -- 90
2018-03-29 01:00:00 9.2 17 Noroeste 27 Noroeste 0 -- -- 91
2018-03-29 00:00:00 10.7 14 Oeste 22 Oeste 0 -- -- 73
2018-03-28 23:00:00 11.7 12 Oeste 21 Oeste 0 -- -- 66
2018-03-28 22:00:00 12.8 14 Oeste 27 Oeste 0 -- -- 58
2018-03-28 21:00:00 14.1 16 Oeste 24 Oeste 0 -- -- 52
2018-03-28 20:00:00 17.5 18 Oeste 29 Oeste 0 -- -- 39
2018-03-28 19:00:00 19.7 17 Noroeste 25 Noroeste 0 -- -- 32
2018-03-28 18:00:00 20.4 14 Noroeste 29 Oeste 0 -- -- 32
2018-03-28 17:00:00 20.7 14 Oeste 27 Noroeste 0 -- -- 31
2018-03-28 16:00:00 20.3 14 Noroeste 24 Noroeste 0 -- -- 31
2018-03-28 15:00:00 20.1 14 Noroeste 22 Noroeste 0 -- -- 37
2018-03-28 14:00:00 18.9 12 Noroeste 22 Norte 0 -- -- 37
2018-03-28 13:00:00 18.1 11 Noroeste 21 Noroeste 0 -- -- 50
2018-03-28 12:00:00 16.3 14 Noroeste 20 Noroeste 0 -- -- 61
2018-03-28 11:00:00 13.7 12 Noroeste 18 Noroeste 0 -- -- 67
2018-03-28 10:00:00 11.9 8 Oeste 13 Oeste 0 -- -- 71
2018-03-28 09:00:00 9.1 9 Oeste 12 Oeste 0 -- -- 73
2018-03-28 08:00:00 8.8 7 Oeste 9 Oeste 0 -- -- 73
2018-03-28 07:00:00 8.9 5 Oeste 8 Oeste 0 -- -- 75
2018-03-28 06:00:00 8.9 7 Oeste 10 Oeste 0 -- -- 75
2018-03-28 05:00:00 9.2 6 Oeste 11 Noroeste 0 -- -- 74
2018-03-28 04:00:00 9.5 8 Oeste 16 Noroeste 0 -- -- 75
2018-03-28 03:00:00 9.8 7 Oeste 13 Noroeste 0 -- -- 77
2018-03-28 02:00:00 11.5 12 Oeste 15 Sudoeste 0 -- -- 74
2018-03-28 01:00:00 11.7 7 Oeste 11 Sudoeste 0 -- -- 75
2018-03-28 00:00:00 13.5 4 Sur 5 Sur 0 -- -- 66
2018-03-27 23:00:00 14 0 Calma 4 Noroeste 0 -- -- 63
2018-03-27 22:00:00 14.3 3 Noroeste 5 Norte 0 -- -- 67
2018-03-27 21:00:00 15.6 2 Norte 11 Norte 0 -- -- 62
2018-03-27 20:00:00 17.9 6 Norte 17 Noroeste 0 -- -- 55
2018-03-27 19:00:00 18.9 11 Norte 21 Norte 0 -- -- 51
2018-03-27 18:00:00 19.1 10 Norte 23 Noroeste 0 -- -- 47
2018-03-27 17:00:00 18.9 10 Norte 26 Noroeste 0 -- -- 50
2018-03-27 16:00:00 18.6 13 Noroeste 24 Noroeste 0 -- -- 49
2018-03-27 15:00:00 17.8 14 Norte 23 Noroeste 0 -- -- 51
2018-03-27 14:00:00 16.5 11 Noroeste 25 Noroeste 0 -- -- 55
2018-03-27 13:00:00 14.9 12 Noroeste 21 Noroeste 0 -- -- 65
2018-03-27 12:00:00 13.4 10 Oeste 18 Oeste 0 -- -- 73
2018-03-27 11:00:00 11.4 12 Noroeste 19 Noroeste 0 -- -- 80
2018-03-27 10:00:00 8.6 8 Noroeste 14 Noroeste 0 -- -- 87
2018-03-27 09:00:00 6.2 5 Oeste 10 Oeste 0 -- -- 90
2018-03-27 08:00:00 5 8 Oeste 11 Oeste 0 -- -- 92
2018-03-27 07:00:00 4.9 7 Noroeste 15 Noroeste 0 -- -- 93
2018-03-27 06:00:00 4.8 10 Noroeste 15 Noroeste 0 -- -- 92
2018-03-27 05:00:00 5.8 10 Noroeste 15 Noroeste 0 -- -- 88
2018-03-27 04:00:00 6.4 9 Noroeste 14 Noroeste 0 -- -- 85
2018-03-27 03:00:00 6.4 8 Oeste 16 Oeste 0 -- -- 84
2018-03-27 02:00:00 7.4 11 Oeste 16 Oeste 0 -- -- 76
2018-03-27 01:00:00 7.2 10 Oeste 15 Oeste 0 -- -- 75
2018-03-27 00:00:00 6.9 8 Oeste 14 Noroeste 0 -- -- 77
2018-03-26 23:00:00 8.2 7 Oeste 18 Noroeste 0 -- -- 71
2018-03-26 22:00:00 8.2 9 Noroeste 14 Oeste 0 -- -- 76
2018-03-26 21:00:00 10 9 Noroeste 17 Noroeste 0 -- -- 72
2018-03-26 20:00:00 13.5 13 Noroeste 26 Noroeste 0 -- -- 52
2018-03-26 19:00:00 14.5 17 Noroeste 27 Noroeste 0 -- -- 46
2018-03-26 18:00:00 14.9 17 Noroeste 31 Noroeste 0 -- -- 52
2018-03-26 17:00:00 15 12 Noroeste 23 Oeste 0 -- -- 53
2018-03-26 16:00:00 14.3 10 Noroeste 22 Oeste 0 -- -- 53
2018-03-26 15:00:00 13.7 9 Noroeste 20 Noroeste 0 -- -- 56
2018-03-26 14:00:00 12.4 8 Noroeste 17 Noroeste 0 -- -- 60
2018-03-26 13:00:00 11 8 Noroeste 17 Noroeste 0 -- -- 68
2018-03-26 12:00:00 9.3 10 Noroeste 19 Noroeste 0 -- -- 76
2018-03-26 11:00:00 7 13 Noroeste 21 Oeste 0 -- -- 82
2018-03-26 10:00:00 5.3 13 Noroeste 22 Oeste 0 -- -- 92
2018-03-26 09:00:00 2.8 11 Oeste 13 Oeste 0 -- -- 97
2018-03-26 08:00:00 1.8 10 Noroeste 15 Noroeste 0 -- -- 96
2018-03-26 07:00:00 2.2 9 Noroeste 17 Noroeste 0 -- -- 96
2018-03-26 06:00:00 3.1 9 Oeste 20 Oeste 0 -- -- 93
2018-03-26 05:00:00 3.6 12 Noroeste 27 Noroeste 0 -- -- 93
2018-03-26 04:00:00 4 17 Noroeste 27 Noroeste 0 -- -- 92
2018-03-26 03:00:00 4 18 Noroeste 25 Noroeste 0 -- -- 87
2018-03-26 02:00:00 3.9 15 Noroeste 21 Noroeste 0 -- -- 84
2018-03-26 01:00:00 4.3 7 Noroeste 18 Noroeste 0 -- -- 83
2018-03-26 00:00:00 5.3 14 Noroeste 19 Noroeste 0 -- -- 79
2018-03-25 23:00:00 5.3 12 Noroeste 21 Noroeste 0 -- -- 81
2018-03-25 22:00:00 6 14 Noroeste 22 Noroeste 0 -- -- 81
2018-03-25 21:00:00 8.2 15 Noroeste 25 Noroeste 0 -- -- 73
2018-03-25 20:00:00 10.7 17 Noroeste 40 Noroeste 0 -- -- 63
2018-03-25 19:00:00 11.3 23 Noroeste 39 Noroeste 0 -- -- 59
2018-03-25 18:00:00 11.2 21 Norte 40 Noroeste 0 -- -- 64
2018-03-25 17:00:00 11.2 22 Noroeste 33 Noroeste 0 -- -- 67
2018-03-25 16:00:00 10.2 18 Norte 36 Norte 0 -- -- 75
2018-03-25 15:00:00 9.3 16 Norte 32 Noroeste 0 -- -- 87
2018-03-25 14:00:00 8.3 13 Norte 26 Nordeste 0 -- -- 92
2018-03-25 13:00:00 8.6 11 Norte 18 Nordeste 0 -- -- 90
2018-03-25 12:00:00 7.7 4 Nordeste 11 Este 0.2 -- -- 97
2018-03-25 11:00:00 6.1 9 Este 21 Sudeste 0 -- -- 98
2018-03-25 10:00:00 5.6 9 Sudeste 16 Sudeste 0.2 -- -- 98
2018-03-25 09:00:00 5 10 Sudeste 16 Sudeste 0.2 -- -- 98
2018-03-25 08:00:00 4.9 10 Sudeste 16 Sudeste 0.2 -- -- 97
2018-03-25 07:00:00 5 5 Sur 10 Sudoeste 1.2 -- -- 96
2018-03-25 06:00:00 5.1 5 Sudoeste 19 Oeste 0.2 -- -- 95
2018-03-25 05:00:00 5.1 18 Oeste 26 Oeste 0.2 -- -- 94
2018-03-25 03:00:00 5.6 15 Oeste 31 Oeste 1 -- -- 92
2018-03-25 01:00:00 6.1 20 Oeste 41 Oeste 0 -- -- 81
2018-03-25 00:00:00 6.1 22 Oeste 44 Oeste 0 -- -- 77
2018-03-24 23:00:00 6.2 25 Noroeste 54 Oeste 0 -- -- 80
2018-03-24 22:00:00 7.1 25 Oeste 48 Noroeste 0 -- -- 78
2018-03-24 21:00:00 7.3 28 Noroeste 49 Noroeste 0 -- -- 75
2018-03-24 20:00:00 7.7 33 Oeste 57 Oeste 0 -- -- 69
2018-03-24 19:00:00 8.9 31 Oeste 64 Noroeste 0 -- -- 70
2018-03-24 18:00:00 10.4 37 Oeste 57 Oeste 0 -- -- 63
2018-03-24 17:00:00 10.5 40 Noroeste 61 Noroeste 0 -- -- 61
2018-03-24 16:00:00 11.2 40 Noroeste 61 Noroeste 0 -- -- 58
2018-03-24 15:00:00 10.1 36 Noroeste 60 Noroeste 0 -- -- 60
2018-03-24 14:00:00 10.4 43 Noroeste 63 Noroeste 0 -- -- 63
2018-03-24 13:00:00 9.1 44 Noroeste 66 Noroeste 0 -- -- 65
2018-03-24 12:00:00 7.8 39 Noroeste 64 Noroeste 0 -- -- 69
2018-03-24 11:00:00 7.3 43 Noroeste 60 Noroeste 0 -- -- 74
2018-03-24 10:00:00 6.1 35 Noroeste 54 Oeste 0 -- -- 84
2018-03-24 09:00:00 4.6 28 Noroeste 50 Oeste 0 -- -- 89
2018-03-24 08:00:00 3.7 31 Noroeste 47 Noroeste 0 -- -- 93
2018-03-24 07:00:00 3.7 33 Noroeste 52 Noroeste 0 -- -- 93
2018-03-24 06:00:00 4 38 Noroeste 62 Noroeste 0 -- -- 93
2018-03-24 05:00:00 4.5 43 Noroeste 64 Noroeste 0 -- -- 92
2018-03-24 04:00:00 5.2 44 Noroeste 61 Noroeste 0 -- -- 94
2018-03-24 03:00:00 6.6 38 Noroeste 68 Noroeste 0.6 -- -- 92
2018-03-24 02:00:00 8.3 49 Noroeste 76 Noroeste 0.8 -- -- 91
2018-03-24 01:00:00 9.5 30 Sudoeste 48 Sudoeste 0.4 -- -- 95
2018-03-24 00:00:00 9.9 26 Oeste 43 Sudoeste 0.2 -- -- 94
2018-03-23 23:00:00 9.7 23 Oeste 53 Oeste 0 -- -- 92
2018-03-23 22:00:00 10.1 23 Sudoeste 45 Oeste 0 -- -- 95
2018-03-23 21:00:00 10.4 27 Oeste 46 Oeste 0.4 -- -- 96
2018-03-23 20:00:00 10 16 Sudoeste 31 Sudoeste 0.6 -- -- 97
2018-03-23 19:00:00 10.1 18 Sudoeste 32 Sudoeste 0.2 -- -- 96
2018-03-23 18:00:00 9.8 24 Sudoeste 36 Sudoeste 0.4 -- -- 96
2018-03-23 17:00:00 10.4 20 Sudoeste 28 Sudoeste 0 -- -- 93
2018-03-23 16:00:00 10.5 16 Sudoeste 28 Sudoeste 0 -- -- 93
2018-03-23 15:00:00 11 19 Sudoeste 33 Sudoeste 0 -- -- 88
2018-03-23 14:00:00 9.8 18 Oeste 29 Oeste 0 -- -- 92
2018-03-23 13:00:00 9 19 Oeste 28 Oeste 0 -- -- 94
2018-03-23 12:00:00 7.9 17 Oeste 26 Oeste 0 -- -- 95
2018-03-23 11:00:00 7.5 19 Oeste 28 Oeste 0 -- -- 96
2018-03-23 10:00:00 6.6 14 Oeste 33 Noroeste 0 -- -- 95
2018-03-23 09:00:00 6 20 Noroeste 41 Noroeste 0 -- -- 94
2018-03-23 08:00:00 4.6 31 Noroeste 43 Noroeste 0 -- -- 95
2018-03-23 07:00:00 3.8 14 Oeste 22 Noroeste 0 -- -- 96
2018-03-23 06:00:00 3.5 12 Oeste 37 Oeste 0 -- -- 96
2018-03-23 05:00:00 3 16 Oeste 27 Noroeste 0 -- -- 96
2018-03-23 04:00:00 3.1 10 Oeste 19 Oeste 0 -- -- 95
2018-03-23 03:00:00 4.1 12 Oeste 26 Oeste 0 -- -- 94
2018-03-23 02:00:00 4.8 13 Oeste 24 Oeste 0 -- -- 88
2018-03-23 01:00:00 5.3 12 Oeste 23 Oeste 0 -- -- 84
2018-03-23 00:00:00 5.9 19 Oeste 25 Oeste 0 -- -- 77